Airfield :
LOGIN :

Register | Disclaimer

   EN    FR    IT 

 










Legend :    VFR   Marginal VFR   IFR   Intensive IFR   Very Intensive IFR
Visi :
Ceiling :
>= 8 km
>= 3000ft
5 to 8 km
1000 to 3000 ft
1500m to 5 km
500 to 1000 ft
800 to 1500m
200 to 500 ft
< 800m
< 200 ft
Symbols :   Thunderstorms  Fog  Heavy snow  Heavy precipitations  Wind > 20 kt
SIGMETs :     Misc.  Thunderstorms  Icing  Turbulence  Mountain Waves  Volcanic Ashes






- Airport Elevation : 100 ft


EBDT - Schaffen

CURRENT METAR :
  • 251725Z 35011KT 9999 FEW058 21/07 Q1033 BLU BLU

EXPIRED METARs :
  • 251655Z 35009KT 9999 FEW058 21/08 Q1033 BLU BLU
  • 251625Z 34008KT 9999 SCT058 22/07 Q1033 BLU BLU
  • 251555Z 36010KT 9999 SCT058 22/08 Q1033 BLU BLU
  • 251525Z 36009KT 9999 SCT060 21/07 Q1033 BLU BLU
  • 251455Z 36009KT 9999 SCT055 22/08 Q1033 BLU BLU

TAF TAF EBDT
Valid from the 25 at 13:00 until the 25 at 22:00 UTC


251141Z 2513/2522 34008KT 9999 FEW040 SCT060
PROB30
TEMPO 2513/2515 35007G17KT



MET'MAP, your aeronautical weather chart ! - Copyright ORBIFLY December 2007 - Disclaimer

ORBIFLY MET'MAP TEAM :

Programming & Development : Alexandra Zaïnal
Concept & original design : Baudouin d'Aumeries
Assistance for programming : Marc-Olivier Méhu
Technical & hardware support : Manuel Goepfert

Contact : metmap@orbifly.com




SOURCES & CREDITS :

   NOAA